Frost Town, Louisiana
Current Conditions -  °F | °C
As of 2:15 PM on Sunday 21 Dec 2014 (Local Time) from KRSN Reporting Station
Clear Clear  
Wind Chill: 60°   Ceiling: Unl
Heat Index: 60°   Visibility: 10mi
Dew Point: 44°   Wind: 0mph
Humidity: 55%   Direction: NA
Pressure: 30.04"   Gusts: NA
Location:  32.6533°N, 92.3683°W
Report Text: KRSN 212015Z AUTO 00000KT 10SM CLR 16/07 A3004 RMK AO2 T01560065
Loading
Personal Weather Stations






























Interactive Weather Map New forecast layout! Learn more

10-Day Weather Forecast

Advertisements
Track Severe Weather on mobile